Aérodrome :
LOGIN :

S'inscrire | Disclaimer

   EN    FR    IT 

 










Légende :    VFR   VFR Marginal   IFR   IFR Intensif   IFR Très Intensif
Visi : 
Plafond : 
>= 8 km
>= 3000ft
5 à 8 km
1000 à 3000 ft
1500m à 5 km
500 à 1000 ft
800 à 1500m
200 à 500 ft
< 800m
< 200 ft
Symboles :   Orages  Brouillard  Fortes neiges  Fortes précipitations  Vent > 20 kt
SIGMETs :   Divers  Orages  Givrage  Turbulence  Onde Orograph.  Cendres Volcan.







- Altitude de l'aérodrome : 1273 ft
- Code IATA : LJU


LJLJ - Ljubljana

DERNIER METAR :
  • 170530Z 00000KT CAVOK 17/15 Q1021 NOSIG

METARs EXPIRÉS :
  • 170500Z 00000KT CAVOK 16/14 Q1021 NOSIG
  • 170430Z VRB01KT 9999 MIFG NSC 15/14 Q1021 NOSIG
  • 170400Z VRB01KT 9999 VCFG NSC 15/14 Q1021 NOSIG
  • 170330Z 30003KT 9999 FEW060 BKN140 15/14 Q1021 NOSIG
  • 170300Z VRB01KT 9999 FEW060 BKN140 16/15 Q1021 NOSIG

TAF TAF LJLJ
Valide du 17 à 06h jusqu'au 18 à 06h UTC


170500Z 1706/1806 31003KT 9999 SCT050 BKN140
BECMG 1708/1711 12005KT SCT050
PROB30
TEMPO 1713/1717 SHRA SCT050TCU
BECMG 1718/1720 VRB02KT
Pas de NOTAMs connus pour ce terrain.



MET'MAP, la Météo Aéronautique d'un coup d'oeil ! - Copyright ORBIFLY Décembre 2007 - Disclaimer

ORBIFLY MET'MAP TEAM :

Programmation & Développement : Alexandra Zaïnal
Conception & Développement : Baudouin d'Aumeries
Co-Programmation & Développement : Marc-Olivier Méhu
Soutien technique & logistique : Manuel Goepfert

Contact : metmap@orbifly.com




SOURCES & CREDITS :

   NOAA